Time;durP1;ratioP1;P1;durP2;ratioP2;P2;SDS_P1;SDS_P2;PMS_P1;PMS_P2;Temp;Humidity;BMP_temperature;BMP_pressure;BME280_temperature;BME280_humidity;BME280_pressure;Samples;Min_cycle;Max_cycle;Signal;HPM_P1;HPM_P2
2023/12/23 00:01:37;;;;;;;7.63;3.53;;;;;;;4.27;64.01;92538.94;5082924;28;20036;-88
2023/12/23 00:04:03;;;;;;;7.78;3.20;;;;;;;4.30;64.18;92542.84;5083296;28;20028;-88
2023/12/23 00:06:28;;;;;;;9.77;3.60;;;;;;;4.26;64.33;92536.63;5081742;28;20082;-88
2023/12/23 00:08:54;;;;;;;10.52;3.45;;;;;;;4.24;64.85;92547.47;5082940;28;20044;-87
2023/12/23 00:11:19;;;;;;;8.82;3.83;;;;;;;4.11;64.99;92514.84;5081552;28;20020;-88
2023/12/23 00:13:45;;;;;;;9.52;3.90;;;;;;;4.12;65.30;92511.13;5082743;28;20035;-88
2023/12/23 00:16:10;;;;;;;6.88;3.90;;;;;;;4.10;65.45;92513.28;5081499;28;20069;-87
2023/12/23 00:18:35;;;;;;;6.72;2.95;;;;;;;4.14;65.38;92493.13;5081540;28;20058;-88
2023/12/23 00:21:01;;;;;;;7.85;3.78;;;;;;;4.06;65.51;92479.94;5082512;28;20142;-87
2023/12/23 00:23:26;;;;;;;6.63;3.33;;;;;;;4.00;65.56;92485.34;5082944;28;20028;-87
2023/12/23 00:25:52;;;;;;;9.32;4.10;;;;;;;3.91;65.55;92481.09;5081727;28;20091;-88
2023/12/23 00:28:17;;;;;;;9.57;4.22;;;;;;;3.81;66.14;92496.13;5081608;28;20021;-88
2023/12/23 00:30:42;;;;;;;12.15;4.70;;;;;;;3.67;66.32;92484.13;5081684;28;20032;-87
2023/12/23 00:33:08;;;;;;;10.27;3.97;;;;;;;3.60;66.69;92481.91;5081365;28;20020;-87
2023/12/23 00:35:33;;;;;;;9.27;3.55;;;;;;;3.63;66.96;92506.91;5082757;28;20046;-87
2023/12/23 00:37:59;;;;;;;12.82;3.95;;;;;;;3.60;67.02;92490.63;5082309;28;20031;-87
2023/12/23 00:40:25;;;;;;;8.35;3.75;;;;;;;3.61;67.00;92499.28;5082599;28;20021;-85
2023/12/23 00:42:50;;;;;;;9.05;3.70;;;;;;;3.56;67.16;92515.22;5082099;28;20302;-88
2023/12/23 00:45:16;;;;;;;7.40;4.00;;;;;;;3.51;67.21;92479.25;5081417;28;20024;-86
2023/12/23 00:47:41;;;;;;;5.75;2.72;;;;;;;3.53;67.01;92484.97;5081299;28;20021;-85
2023/12/23 00:50:07;;;;;;;8.43;3.53;;;;;;;3.49;66.78;92467.47;5082782;28;20021;-88
2023/12/23 00:52:32;;;;;;;9.90;2.88;;;;;;;3.46;66.55;92463.56;5082542;28;20016;-89
2023/12/23 00:54:58;;;;;;;8.85;3.25;;;;;;;3.46;66.60;92475.94;5082454;28;20016;-89
2023/12/23 00:57:23;;;;;;;7.82;3.60;;;;;;;3.54;66.38;92470.75;5082976;28;20027;-89
2023/12/23 00:59:48;;;;;;;6.57;3.22;;;;;;;3.37;67.14;92471.41;5082272;28;20020;-90
2023/12/23 01:02:14;;;;;;;9.30;2.75;;;;;;;3.49;67.36;92480.63;5082874;28;20044;-88
2023/12/23 01:04:40;;;;;;;5.22;2.85;;;;;;;3.55;67.45;92477.56;5082740;28;20309;-88
2023/12/23 01:07:05;;;;;;;5.07;2.55;;;;;;;3.56;67.27;92455.41;5082777;28;20095;-88
2023/12/23 01:09:31;;;;;;;6.18;2.72;;;;;;;3.58;67.29;92469.06;5085064;28;20017;-88
2023/12/23 01:11:56;;;;;;;5.75;2.67;;;;;;;3.53;67.35;92447.34;5086317;28;20062;-89
2023/12/23 01:14:22;;;;;;;5.07;2.70;;;;;;;3.52;67.21;92464.19;5085472;28;20088;-89
2023/12/23 01:16:47;;;;;;;6.78;3.03;;;;;;;3.59;66.71;92460.06;5084802;28;20410;-90
2023/12/23 01:19:13;;;;;;;6.57;2.67;;;;;;;3.62;66.77;92448.13;5085912;28;20025;-87
2023/12/23 01:21:38;;;;;;;7.13;3.05;;;;;;;3.66;66.97;92435.91;5084543;28;20020;-87
2023/12/23 01:24:04;;;;;;;5.55;2.75;;;;;;;3.63;66.89;92444.44;5085400;28;20062;-86
2023/12/23 01:26:30;;;;;;;6.43;3.00;;;;;;;3.55;67.02;92414.31;5084196;28;20036;-86
2023/12/23 01:29:00;;;;;;;6.43;3.20;;;;;;;3.55;66.70;92410.91;5084049;28;20103;-86
2023/12/23 01:31:26;;;;;;;3.88;1.67;;;;;;;3.61;65.08;92388.63;5085361;28;20052;-87
2023/12/23 01:33:51;;;;;;;4.20;1.60;;;;;;;3.76;64.71;92385.56;5085286;28;20036;-87
2023/12/23 01:36:17;;;;;;;4.32;2.17;;;;;;;3.87;64.59;92354.44;5085399;28;20126;-87
2023/12/23 01:38:42;;;;;;;3.08;1.13;;;;;;;3.98;63.27;92362.81;5083983;28;20028;-87
2023/12/23 01:41:08;;;;;;;0.98;0.50;;;;;;;4.53;60.38;92351.66;5084002;28;20031;-87
2023/12/23 01:43:33;;;;;;;2.53;1.10;;;;;;;4.67;60.97;92350.72;5085045;28;20195;-86
2023/12/23 01:45:59;;;;;;;1.88;0.90;;;;;;;4.83;59.32;92349.16;5085238;28;20090;-87
2023/12/23 01:48:27;;;;;;;1.95;0.98;;;;;;;5.02;59.09;92340.88;5084961;28;20091;-88
2023/12/23 01:50:54;;;;;;;2.65;1.20;;;;;;;5.23;58.02;92349.69;5084199;28;20047;-88
2023/12/23 01:53:21;;;;;;;4.78;1.63;;;;;;;5.23;58.43;92356.81;5085267;28;20323;-88
2023/12/23 01:55:47;;;;;;;3.67;1.38;;;;;;;5.29;58.00;92381.97;5085126;28;20024;-88
2023/12/23 01:58:12;;;;;;;1.83;0.93;;;;;;;5.57;54.64;92328.69;5083918;28;20024;-87
2023/12/23 02:00:38;;;;;;;1.55;0.68;;;;;;;6.04;53.77;92318.03;5084369;28;20052;-87
2023/12/23 02:03:04;;;;;;;1.73;0.73;;;;;;;6.34;51.53;92325.91;5085177;28;20193;-87
2023/12/23 02:05:30;;;;;;;1.50;0.47;;;;;;;6.75;49.57;92327.72;5085070;28;20024;-88
2023/12/23 02:07:55;;;;;;;0.55;0.40;;;;;;;6.92;48.93;92342.69;5085332;28;20051;-86
2023/12/23 02:10:21;;;;;;;0.77;0.43;;;;;;;7.23;45.26;92328.97;5084687;28;20070;-85
2023/12/23 02:13:08;;;;;;;0.60;0.50;;;;;;;7.40;45.98;92314.72;5084310;28;20192;-85
2023/12/23 02:15:36;;;;;;;0.85;0.63;;;;;;;7.68;43.04;92284.91;5084486;28;20323;-84
2023/12/23 02:18:02;;;;;;;2.58;0.75;;;;;;;7.82;44.03;92329.66;5084278;28;20024;-85
2023/12/23 02:20:28;;;;;;;1.30;0.65;;;;;;;7.79;45.17;92299.25;5084225;28;20022;-85
2023/12/23 02:22:54;;;;;;;2.50;0.50;;;;;;;7.77;44.72;92370.44;5083072;28;20098;-85
2023/12/23 02:25:20;;;;;;;0.50;0.40;;;;;;;7.84;44.03;92341.47;5083450;28;20035;-88
2023/12/23 02:27:52;;;;;;;0.77;0.38;;;;;;;7.89;44.62;92316.59;5082957;28;20021;-86
2023/12/23 02:30:19;;;;;;;0.47;0.32;;;;;;;7.82;45.13;92333.09;5085329;28;20096;-90
2023/12/23 02:32:45;;;;;;;1.65;0.40;;;;;;;7.77;45.17;92284.78;5084837;28;20020;-89
2023/12/23 02:35:14;;;;;;;1.30;0.57;;;;;;;7.80;43.90;92300.06;5084409;28;20040;-88
2023/12/23 02:37:40;;;;;;;1.98;0.57;;;;;;;7.92;44.35;92238.25;5084425;28;20218;-87
2023/12/23 02:40:06;;;;;;;0.85;0.47;;;;;;;7.86;43.67;92297.91;5084059;28;20020;-88
2023/12/23 02:42:32;;;;;;;0.93;0.43;;;;;;;8.18;40.80;92246.59;5084795;28;20195;-89
2023/12/23 02:44:57;;;;;;;5.90;0.95;;;;;;;8.39;41.51;92298.72;5084254;28;20027;-88
2023/12/23 02:47:23;;;;;;;4.50;0.95;;;;;;;8.24;43.24;92271.78;5084592;28;20016;-89
2023/12/23 02:49:48;;;;;;;7.00;2.60;;;;;;;8.14;46.97;92364.34;5084553;28;20023;-88
2023/12/23 02:52:13;;;;;;;6.25;2.28;;;;;;;7.18;51.29;92280.69;5083559;28;20095;-88
2023/12/23 02:54:39;;;;;;;7.20;2.08;;;;;;;6.96;51.47;92303.88;5084262;28;20027;-88
2023/12/23 02:57:04;;;;;;;2.78;1.67;;;;;;;6.74;54.52;92251.28;5083661;28;20268;-88
2023/12/23 02:59:30;;;;;;;4.00;1.88;;;;;;;6.21;56.75;92352.31;5082784;28;20021;-87
2023/12/23 03:01:55;;;;;;;7.22;1.85;;;;;;;5.80;58.65;92300.91;5083432;28;20107;-88
2023/12/23 03:04:20;;;;;;;5.63;2.55;;;;;;;5.46;59.98;92348.66;5084266;28;20257;-88
2023/12/23 03:06:46;;;;;;;4.53;2.25;;;;;;;5.08;61.42;92328.28;5082869;28;20103;-88
2023/12/23 03:09:11;;;;;;;4.45;2.55;;;;;;;4.87;62.84;92357.22;5082715;28;20066;-85
2023/12/23 03:11:37;;;;;;;5.45;2.55;;;;;;;4.67;63.60;92319.06;5083192;28;20020;-86
2023/12/23 03:14:03;;;;;;;7.78;2.25;;;;;;;4.49;64.52;92339.41;5083154;28;20104;-86
2023/12/23 03:16:33;;;;;;;6.22;2.50;;;;;;;4.36;65.17;92388.63;5083390;28;20016;-86
2023/12/23 03:19:00;;;;;;;5.35;2.50;;;;;;;4.18;66.12;92341.13;5083370;28;20021;-85
2023/12/23 03:21:26;;;;;;;4.32;2.15;;;;;;;4.06;66.71;92306.69;5083287;28;20051;-86
2023/12/23 03:23:51;;;;;;;7.32;2.40;;;;;;;3.90;67.32;92350.41;5081795;28;20024;-85
2023/12/23 03:26:16;;;;;;;4.47;2.13;;;;;;;3.69;67.77;92389.75;5082184;28;20024;-86
2023/12/23 03:28:42;;;;;;;4.53;2.00;;;;;;;3.63;68.70;92306.66;5083193;28;20072;-87
2023/12/23 03:31:07;;;;;;;5.38;2.20;;;;;;;3.52;69.39;92407.03;5082789;28;20040;-87
2023/12/23 03:33:33;;;;;;;4.82;1.90;;;;;;;3.35;69.29;92341.88;5083098;28;20092;-87
2023/12/23 03:36:01;;;;;;;4.53;2.08;;;;;;;3.33;70.01;92354.59;5083078;28;20024;-87
2023/12/23 03:38:27;;;;;;;3.78;1.73;;;;;;;3.30;70.18;92312.31;5082856;28;20093;-83
2023/12/23 03:40:52;;;;;;;5.43;2.10;;;;;;;3.29;70.37;92340.47;5082805;28;20025;-84
2023/12/23 03:43:18;;;;;;;6.50;2.28;;;;;;;3.29;70.24;92258.84;5082728;28;20054;-84
2023/12/23 03:45:43;;;;;;;5.38;2.35;;;;;;;3.11;70.93;92259.88;5082688;28;20333;-84
2023/12/23 03:48:08;;;;;;;5.15;2.33;;;;;;;3.04;71.53;92325.38;5082605;28;20065;-85
2023/12/23 03:50:34;;;;;;;3.00;1.48;;;;;;;2.98;71.74;92337.88;5082698;28;20310;-85
2023/12/23 03:52:59;;;;;;;5.15;1.75;;;;;;;2.85;72.18;92310.56;5082981;28;20091;-85
2023/12/23 03:55:30;;;;;;;5.28;2.42;;;;;;;2.82;72.47;92303.28;5081488;28;20028;-85
2023/12/23 03:57:56;;;;;;;5.30;2.22;;;;;;;2.66;72.89;92310.75;5082946;28;20219;-85
2023/12/23 04:00:21;;;;;;;3.58;1.77;;;;;;;2.53;71.79;92309.78;5081617;28;20063;-85
2023/12/23 04:02:47;;;;;;;2.13;1.00;;;;;;;3.17;67.66;92298.16;5082447;28;20059;-85
2023/12/23 04:05:12;;;;;;;2.45;1.27;;;;;;;3.30;68.86;92286.75;5082875;28;20020;-85
2023/12/23 04:07:37;;;;;;;3.78;1.67;;;;;;;3.35;69.37;92252.34;5082485;28;20016;-86
2023/12/23 04:10:04;;;;;;;1.90;1.10;;;;;;;3.41;68.44;92216.09;5083020;28;20024;-86
2023/12/23 04:12:29;;;;;;;3.17;1.45;;;;;;;3.42;68.23;92246.66;5083713;28;20128;-88
2023/12/23 04:14:55;;;;;;;2.47;1.10;;;;;;;3.50;68.31;92284.59;5082339;28;20025;-87
2023/12/23 04:17:20;;;;;;;4.32;2.17;;;;;;;3.43;68.96;92287.69;5083804;28;20058;-88
2023/12/23 04:19:46;;;;;;;2.65;1.50;;;;;;;3.32;69.74;92297.75;5082563;28;20067;-88
2023/12/23 04:22:11;;;;;;;3.85;1.70;;;;;;;3.28;69.94;92325.78;5083512;28;20107;-86
2023/12/23 04:24:37;;;;;;;3.10;1.30;;;;;;;3.33;67.91;92301.91;5081904;28;20042;-86
2023/12/23 04:27:03;;;;;;;6.90;1.85;;;;;;;3.48;67.05;92332.34;5083366;28;20021;-86
2023/12/23 04:29:29;;;;;;;4.63;1.70;;;;;;;3.13;69.59;92321.66;5083139;28;20211;-86
2023/12/23 04:31:54;;;;;;;2.88;1.40;;;;;;;3.06;69.69;92304.78;5083854;28;20027;-86
2023/12/23 04:34:20;;;;;;;1.23;0.60;;;;;;;4.49;58.28;92279.50;5082176;28;20024;-85
2023/12/23 04:36:45;;;;;;;2.85;1.23;;;;;;;5.03;59.34;92258.69;5082498;28;20382;-86
2023/12/23 04:39:11;;;;;;;4.78;2.03;;;;;;;4.74;63.13;92248.88;5082088;28;20082;-87
2023/12/23 04:41:36;;;;;;;2.97;1.80;;;;;;;4.60;63.53;92274.69;5083533;28;20040;-87
2023/12/23 04:44:03;;;;;;;5.05;1.67;;;;;;;4.42;64.71;92285.25;5083847;28;20027;-87
2023/12/23 04:46:29;;;;;;;5.40;2.25;;;;;;;3.97;66.26;92313.84;5087203;28;20036;-87
2023/12/23 04:48:54;;;;;;;7.65;2.20;;;;;;;3.88;66.98;92279.53;5087241;28;20020;-85
2023/12/23 04:51:19;;;;;;;5.32;1.92;;;;;;;3.74;66.79;92253.31;5087036;28;20027;-85
2023/12/23 04:53:45;;;;;;;4.18;1.52;;;;;;;3.60;67.56;92293.00;5086545;28;20032;-86
2023/12/23 04:56:11;;;;;;;4.40;1.23;;;;;;;3.63;67.02;92306.66;5085223;28;20330;-87
2023/12/23 04:58:36;;;;;;;3.13;1.38;;;;;;;3.65;67.10;92323.69;5086912;28;20332;-87
2023/12/23 05:01:01;;;;;;;7.30;1.70;;;;;;;3.53;68.29;92355.91;5086501;28;20124;-87
2023/12/23 05:03:31;;;;;;;5.07;2.17;;;;;;;3.48;68.77;92355.25;5086328;28;20026;-88
2023/12/23 05:05:56;;;;;;;8.07;2.92;;;;;;;3.28;69.44;92351.31;5086890;28;20025;-88
2023/12/23 05:08:22;;;;;;;3.47;2.10;;;;;;;3.34;69.51;92440.44;5086779;28;20030;-87
2023/12/23 05:10:47;;;;;;;4.47;1.88;;;;;;;3.34;69.79;92393.03;5086584;28;20031;-87
2023/12/23 05:13:14;;;;;;;3.90;1.45;;;;;;;3.35;70.06;92368.22;5086461;28;20028;-87
2023/12/23 05:15:39;;;;;;;4.22;1.55;;;;;;;3.32;69.93;92374.13;5086996;28;20390;-90
2023/12/23 05:18:05;;;;;;;3.42;1.20;;;;;;;3.36;69.58;92350.59;5087061;28;20024;-90
2023/12/23 05:20:30;;;;;;;3.65;1.77;;;;;;;3.32;69.98;92404.94;5087217;28;20024;-90
2023/12/23 05:22:56;;;;;;;2.67;1.42;;;;;;;3.31;70.01;92337.53;5086727;28;20028;-89
2023/12/23 05:25:21;;;;;;;4.50;1.40;;;;;;;3.28;69.37;92381.06;5086920;28;20066;-87
2023/12/23 05:27:46;;;;;;;4.13;1.40;;;;;;;3.16;69.90;92322.94;5085180;28;20028;-87
2023/12/23 05:30:12;;;;;;;2.83;0.80;;;;;;;3.84;61.67;92352.41;5085135;28;20214;-86
2023/12/23 05:32:38;;;;;;;3.55;1.30;;;;;;;4.30;63.12;92374.81;5086112;28;20084;-86
2023/12/23 05:35:03;;;;;;;3.80;1.30;;;;;;;4.29;64.47;92414.66;5086225;28;20020;-86
2023/12/23 05:37:29;;;;;;;4.13;1.55;;;;;;;3.97;65.06;92377.88;5086236;28;20028;-90
2023/12/23 05:39:54;;;;;;;2.22;0.80;;;;;;;4.37;61.34;92337.41;5086510;28;20219;-90
2023/12/23 05:42:20;;;;;;;1.60;0.82;;;;;;;4.46;63.13;92343.47;5085938;28;20238;-88
2023/12/23 05:44:45;;;;;;;2.75;1.35;;;;;;;4.36;62.73;92330.59;5086289;28;20036;-91
2023/12/23 05:47:12;;;;;;;2.15;0.95;;;;;;;4.65;60.51;92352.91;5086281;28;20041;-87
2023/12/23 05:49:37;;;;;;;5.50;1.13;;;;;;;5.08;60.50;92346.75;5085795;28;20046;-86
2023/12/23 05:52:03;;;;;;;4.20;1.00;;;;;;;5.01;59.74;92347.25;5085815;28;20307;-87
2023/12/23 05:54:28;;;;;;;2.92;1.00;;;;;;;4.85;61.32;92376.03;5083985;28;20051;-87
2023/12/23 05:56:54;;;;;;;2.40;1.00;;;;;;;4.99;58.35;92370.56;5084540;28;20063;-84
2023/12/23 05:59:19;;;;;;;4.78;1.00;;;;;;;6.40;52.09;92348.44;5085588;28;20021;-85
2023/12/23 06:01:44;;;;;;;2.67;0.98;;;;;;;6.98;51.00;92373.19;5101056;28;20036;-87
2023/12/23 06:04:10;;;;;;;1.83;0.80;;;;;;;7.48;49.07;92383.91;5084703;28;20031;-88
2023/12/23 06:06:35;;;;;;;2.28;0.73;;;;;;;7.78;47.77;92361.38;5085300;28;20095;-89
2023/12/23 06:09:00;;;;;;;1.42;0.63;;;;;;;7.80;47.84;92376.97;5085981;28;20024;-90
2023/12/23 06:11:26;;;;;;;1.42;0.70;;;;;;;7.88;47.63;92392.00;5085530;28;20024;-89
2023/12/23 06:13:51;;;;;;;2.70;0.77;;;;;;;7.88;47.30;92354.09;5085513;28;20117;-88
2023/12/23 06:16:17;;;;;;;1.48;0.90;;;;;;;7.93;47.69;92359.16;5084256;28;20032;-90
2023/12/23 06:18:42;;;;;;;1.40;0.80;;;;;;;7.97;47.54;92378.63;5085547;28;20032;-88
2023/12/23 06:21:08;;;;;;;1.85;0.77;;;;;;;7.99;47.61;92360.50;5085338;28;20051;-89
2023/12/23 06:23:33;;;;;;;2.42;0.68;;;;;;;8.04;47.76;92384.16;5085048;28;20073;-90
2023/12/23 06:25:59;;;;;;;2.05;0.93;;;;;;;8.03;47.40;92362.13;5085541;28;20031;-90
2023/12/23 06:28:24;;;;;;;3.15;0.80;;;;;;;8.01;47.97;92374.97;5084671;28;20047;-89
2023/12/23 06:30:50;;;;;;;1.75;0.82;;;;;;;7.96;47.87;92361.16;5084128;28;20374;-89
2023/12/23 06:33:15;;;;;;;6.20;1.23;;;;;;;8.01;47.91;92335.16;5084671;28;20040;-89
2023/12/23 06:35:41;;;;;;;2.35;0.85;;;;;;;8.07;47.88;92366.78;5084435;28;20027;-88
2023/12/23 06:38:06;;;;;;;1.58;0.73;;;;;;;8.04;48.21;92376.97;5085385;28;20083;-89
2023/12/23 06:40:32;;;;;;;1.38;0.70;;;;;;;8.00;48.16;92335.50;5084160;28;20051;-87
2023/12/23 06:42:57;;;;;;;3.83;0.80;;;;;;;8.05;48.29;92348.53;5085200;28;20274;-88
2023/12/23 06:45:23;;;;;;;1.02;0.60;;;;;;;8.08;48.63;92297.47;5084752;28;20095;-87
2023/12/23 06:47:48;;;;;;;1.83;0.90;;;;;;;8.10;48.81;92350.19;5084912;28;20095;-87
2023/12/23 06:50:13;;;;;;;3.72;0.95;;;;;;;8.13;49.26;92381.38;5084343;28;20335;-86
2023/12/23 06:52:39;;;;;;;3.63;1.00;;;;;;;8.13;48.60;92382.16;5084881;28;20062;-87
2023/12/23 06:55:04;;;;;;;1.73;0.88;;;;;;;8.19;48.97;92380.03;5085158;28;20016;-87
2023/12/23 06:57:30;;;;;;;5.35;1.25;;;;;;;8.28;48.71;92417.06;5084597;28;20043;-88
2023/12/23 06:59:58;;;;;;;3.92;1.05;;;;;;;8.24;48.51;92449.59;5084742;28;20016;-85
2023/12/23 07:02:23;;;;;;;3.22;0.77;;;;;;;8.18;49.19;92405.81;5084908;28;20075;-85
2023/12/23 07:04:50;;;;;;;2.50;0.75;;;;;;;8.14;48.78;92375.75;5083408;28;20020;-87
2023/12/23 07:07:15;;;;;;;1.98;1.00;;;;;;;8.19;48.90;92420.63;5083353;28;20445;-86
2023/12/23 07:09:41;;;;;;;3.22;0.95;;;;;;;8.23;48.77;92396.84;5084411;28;20016;-87
2023/12/23 07:12:08;;;;;;;1.92;0.65;;;;;;;8.29;48.46;92416.75;5082952;28;20138;-84
2023/12/23 07:14:33;;;;;;;6.45;1.00;;;;;;;8.27;49.17;92424.28;5083539;28;20016;-87
2023/12/23 07:16:59;;;;;;;3.28;0.98;;;;;;;8.22;49.36;92396.09;5084297;28;20039;-86
2023/12/23 07:19:28;;;;;;;1.95;0.73;;;;;;;8.23;49.01;92434.78;5083676;28;20024;-87
2023/12/23 07:21:53;;;;;;;3.05;0.85;;;;;;;8.22;49.21;92369.53;5081488;28;20040;-83
2023/12/23 07:24:21;;;;;;;5.90;0.80;;;;;;;8.29;48.86;92397.41;5083611;28;20024;-84
2023/12/23 07:26:46;;;;;;;2.08;0.75;;;;;;;8.36;48.93;92432.88;5083927;28;20024;-82
2023/12/23 07:29:12;;;;;;;5.05;1.50;;;;;;;8.37;49.47;92397.28;5083362;28;20055;-83
2023/12/23 07:31:37;;;;;;;1.55;0.75;;;;;;;8.42;48.58;92375.81;5082560;28;20020;-82
2023/12/23 07:34:03;;;;;;;4.95;1.05;;;;;;;8.43;49.13;92429.72;5083879;28;20024;-82
2023/12/23 07:36:28;;;;;;;5.63;1.20;;;;;;;8.50;49.35;92403.34;5083898;28;20091;-82
2023/12/23 07:38:54;;;;;;;1.75;0.63;;;;;;;8.56;49.24;92423.25;5082899;28;20091;-84
2023/12/23 07:41:19;;;;;;;1.38;0.73;;;;;;;8.61;49.16;92441.63;5083335;28;20276;-83
2023/12/23 07:43:45;;;;;;;3.10;1.42;;;;;;;8.64;49.24;92418.94;5099151;28;20040;-80
2023/12/23 07:46:11;;;;;;;3.22;0.70;;;;;;;8.62;49.20;92456.44;5083506;28;20028;-80
2023/12/23 07:48:36;;;;;;;1.73;0.75;;;;;;;8.66;49.27;92450.47;5082300;28;20311;-80
2023/12/23 07:51:08;;;;;;;1.88;1.10;;;;;;;8.66;49.71;92422.03;5083303;28;20021;-80
2023/12/23 07:53:34;;;;;;;2.97;1.05;;;;;;;8.66;49.38;92435.31;5083239;28;20135;-80
2023/12/23 07:55:59;;;;;;;2.63;0.85;;;;;;;8.67;49.30;92439.53;5082779;28;20020;-80
2023/12/23 07:58:24;;;;;;;2.65;0.85;;;;;;;8.71;49.67;92456.34;5083371;28;20155;-80
2023/12/23 08:00:50;;;;;;;2.47;0.98;;;;;;;8.67;49.25;92462.63;5082024;28;20268;-79
2023/12/23 08:03:15;;;;;;;2.17;1.20;;;;;;;8.68;49.43;92490.75;5083039;28;20035;-79
2023/12/23 08:05:40;;;;;;;2.20;0.82;;;;;;;8.61;50.06;92523.97;5082954;28;20046;-80
2023/12/23 08:08:07;;;;;;;2.33;1.00;;;;;;;8.60;49.92;92485.22;5083378;28;20024;-81
2023/12/23 08:10:33;;;;;;;3.08;0.98;;;;;;;8.63;49.56;92497.84;5082907;28;20024;-79
2023/12/23 08:12:58;;;;;;;1.88;0.82;;;;;;;8.71;49.69;92501.50;5083297;28;20025;-78
2023/12/23 08:15:24;;;;;;;4.35;1.30;;;;;;;8.76;49.70;92524.41;5083162;28;20368;-80
2023/12/23 08:17:49;;;;;;;3.85;1.15;;;;;;;8.83;49.94;92517.44;5085250;28;20020;-87
2023/12/23 08:20:15;;;;;;;1.55;0.77;;;;;;;8.82;50.28;92480.56;5087926;28;20025;-88
2023/12/23 08:22:41;;;;;;;3.80;1.00;;;;;;;8.88;49.71;92497.81;5087440;28;20016;-85
2023/12/23 08:25:07;;;;;;;3.92;1.52;;;;;;;8.86;49.65;92529.25;5087396;28;20024;-85
2023/12/23 08:27:32;;;;;;;2.00;0.73;;;;;;;9.06;49.57;92553.34;5086090;28;20032;-74
2023/12/23 08:29:58;;;;;;;2.42;0.98;;;;;;;9.08;49.66;92536.00;5086863;28;20241;-78
2023/12/23 08:32:23;;;;;;;2.97;1.20;;;;;;;9.13;49.55;92527.00;5086065;28;20021;-78
2023/12/23 08:34:52;;;;;;;5.55;1.02;;;;;;;9.16;49.64;92534.28;5086402;28;20195;-79
2023/12/23 08:37:17;;;;;;;2.75;0.95;;;;;;;9.17;50.27;92554.47;5085419;28;20310;-79
2023/12/23 08:39:42;;;;;;;5.00;1.33;;;;;;;9.19;51.28;92616.03;5086178;28;20071;-82
2023/12/23 08:42:08;;;;;;;6.30;1.42;;;;;;;9.09;53.10;92637.75;5085940;28;20333;-79
2023/12/23 08:44:33;;;;;;;1.25;0.82;;;;;;;8.95;52.43;92612.28;5086672;28;20222;-80
2023/12/23 08:46:59;;;;;;;1.50;0.80;;;;;;;8.84;52.78;92614.63;5085852;28;20268;-78
2023/12/23 08:49:24;;;;;;;4.53;1.10;;;;;;;8.79;53.34;92640.63;5086297;28;20044;-78
2023/12/23 08:51:49;;;;;;;2.88;0.93;;;;;;;8.69;53.79;92625.13;5086584;28;20013;-78
2023/12/23 08:54:15;;;;;;;2.47;1.05;;;;;;;8.64;53.55;92640.16;5085977;28;20095;-78
2023/12/23 08:56:40;;;;;;;2.60;0.95;;;;;;;8.67;53.78;92643.25;5084717;28;20051;-77
2023/12/23 08:59:06;;;;;;;5.40;1.45;;;;;;;8.61;53.04;92659.44;5085891;28;20028;-77
2023/12/23 09:01:31;;;;;;;2.38;0.90;;;;;;;8.57;53.40;92665.72;5085733;28;20043;-77
2023/12/23 09:03:57;;;;;;;1.90;0.90;;;;;;;8.63;53.40;92691.75;5085372;28;20016;-77
2023/12/23 09:06:22;;;;;;;6.18;1.70;;;;;;;8.55;53.88;92713.88;5084393;28;20016;-78
2023/12/23 09:08:50;;;;;;;8.23;2.17;;;;;;;8.56;54.27;92711.97;5085440;28;20023;-77
2023/12/23 09:11:16;;;;;;;8.13;2.25;;;;;;;8.39;57.22;92711.00;5085923;28;20200;-77
2023/12/23 09:13:41;;;;;;;4.07;1.52;;;;;;;7.88;58.70;92728.16;5084969;28;20059;-83
2023/12/23 09:16:07;;;;;;;8.88;1.77;;;;;;;7.56;60.52;92687.94;5084803;28;20020;-81
2023/12/23 09:18:32;;;;;;;7.32;2.08;;;;;;;7.43;62.67;92740.88;5085686;28;20287;-75
2023/12/23 09:20:57;;;;;;;7.70;1.92;;;;;;;7.39;62.87;92731.25;5085311;28;20026;-75
2023/12/23 09:23:23;;;;;;;4.85;1.83;;;;;;;7.32;63.34;92715.81;5085714;28;20091;-75
2023/12/23 09:25:48;;;;;;;9.27;2.42;;;;;;;7.28;64.56;92709.63;5085394;28;20070;-76
2023/12/23 09:28:14;;;;;;;4.88;2.22;;;;;;;7.28;66.48;92730.81;5085422;28;20027;-79
2023/12/23 09:30:39;;;;;;;6.97;2.60;;;;;;;7.19;66.13;92748.66;5085228;28;20326;-73
2023/12/23 09:33:05;;;;;;;4.82;1.92;;;;;;;6.93;66.44;92751.38;5085582;28;20024;-74
2023/12/23 09:35:31;;;;;;;3.42;1.52;;;;;;;6.65;66.75;92761.59;5085579;28;20046;-77
2023/12/23 09:37:58;;;;;;;4.70;1.83;;;;;;;6.29;67.83;92782.03;5085605;28;20043;-77
2023/12/23 09:40:24;;;;;;;5.88;2.15;;;;;;;6.07;68.65;92771.59;5085631;28;20020;-78
2023/12/23 09:42:50;;;;;;;5.22;1.58;;;;;;;6.00;69.07;92766.75;5085247;28;20265;-76
2023/12/23 09:45:16;;;;;;;6.72;2.30;;;;;;;5.93;69.87;92784.94;5084089;28;20361;-77
2023/12/23 09:47:42;;;;;;;7.30;1.77;;;;;;;5.83;69.73;92810.59;5085484;28;20028;-77
2023/12/23 09:50:08;;;;;;;4.78;2.30;;;;;;;5.57;70.64;92836.94;5085569;28;20059;-78
2023/12/23 09:52:33;;;;;;;4.10;1.20;;;;;;;5.24;73.08;92870.88;5085121;28;20036;-76
2023/12/23 09:55:03;;;;;;;5.20;1.30;;;;;;;4.91;76.34;92833.41;5085090;28;20031;-81
2023/12/23 09:57:30;;;;;;;3.38;1.48;;;;;;;4.72;78.75;92860.00;5084256;28;20020;-77
2023/12/23 09:59:58;;;;;;;4.95;1.58;;;;;;;4.48;78.90;92844.44;5085238;28;20065;-79
2023/12/23 10:02:24;;;;;;;8.70;1.35;;;;;;;4.30;81.68;92920.06;5083787;28;20085;-78
2023/12/23 10:04:49;;;;;;;2.03;1.10;;;;;;;4.14;82.37;92899.25;5083087;28;20013;-78
2023/12/23 10:07:15;;;;;;;3.80;1.52;;;;;;;3.93;83.16;92892.84;5084623;28;20077;-78
2023/12/23 10:09:41;;;;;;;2.53;1.73;;;;;;;3.82;83.91;92876.44;5084235;28;20044;-78
2023/12/23 10:12:07;;;;;;;5.10;1.50;;;;;;;3.80;85.29;92874.09;5083040;28;20080;-78
2023/12/23 10:14:33;;;;;;;3.15;1.30;;;;;;;3.80;85.30;92876.75;5083731;28;20020;-78
2023/12/23 10:16:58;;;;;;;2.25;1.35;;;;;;;3.77;85.54;92898.44;5084760;28;20033;-78
2023/12/23 10:19:24;;;;;;;2.95;1.20;;;;;;;3.81;86.67;92922.34;5083827;28;20163;-78
2023/12/23 10:21:50;;;;;;;6.15;1.55;;;;;;;3.78;86.69;92934.25;5083124;28;20069;-78
2023/12/23 10:24:16;;;;;;;5.25;1.55;;;;;;;3.75;86.74;92934.84;5083807;28;20024;-78
2023/12/23 10:26:42;;;;;;;6.80;1.83;;;;;;;3.73;86.44;92952.81;5084101;28;20028;-78
2023/12/23 10:29:09;;;;;;;2.60;1.63;;;;;;;3.63;86.21;92933.75;5084216;28;20040;-78
2023/12/23 10:31:36;;;;;;;4.90;2.17;;;;;;;3.66;86.20;92947.13;5084163;28;20086;-78
2023/12/23 10:34:11;;;;;;;3.00;1.50;;;;;;;3.72;85.39;92966.25;5084121;28;20028;-78
2023/12/23 10:36:42;;;;;;;2.78;1.25;;;;;;;3.71;84.49;92952.31;5083428;28;20329;-77
2023/12/23 10:39:22;;;;;;;3.45;1.58;;;;;;;3.64;84.56;92944.00;5084394;28;20063;-78
2023/12/23 10:41:53;;;;;;;3.92;1.10;;;;;;;3.60;84.37;92974.63;5083045;28;20095;-77
2023/12/23 10:44:20;;;;;;;3.22;1.13;;;;;;;3.57;83.96;92962.84;5084201;28;20020;-77
2023/12/23 10:46:46;;;;;;;6.93;1.10;;;;;;;3.57;84.73;92969.97;5083936;28;20024;-78
2023/12/23 10:49:13;;;;;;;3.63;0.85;;;;;;;3.59;84.84;92962.56;5084010;28;20074;-77
2023/12/23 10:51:38;;;;;;;5.22;1.20;;;;;;;3.62;84.44;92993.56;5084002;28;20013;-78
2023/12/23 10:54:08;;;;;;;5.93;1.73;;;;;;;3.62;84.99;92983.03;5083889;28;20032;-77
2023/12/23 10:56:35;;;;;;;7.75;1.90;;;;;;;3.60;84.89;92975.44;5083864;28;20052;-77
2023/12/23 10:59:02;;;;;;;3.88;1.25;;;;;;;3.59;85.09;92959.91;5083559;28;20261;-78
2023/12/23 11:01:32;;;;;;;3.60;1.48;;;;;;;3.59;84.88;92981.00;5083221;28;20071;-77
2023/12/23 11:04:02;;;;;;;4.55;1.33;;;;;;;3.60;84.79;92977.28;5082556;28;20052;-77
2023/12/23 11:06:34;;;;;;;4.20;1.67;;;;;;;3.62;85.06;92983.03;5083761;28;20062;-77
2023/12/23 11:09:02;;;;;;;1.75;1.10;;;;;;;3.68;84.98;92979.22;5083608;28;20067;-77
2023/12/23 11:11:29;;;;;;;1.48;0.65;;;;;;;3.73;83.22;92973.88;5083484;28;20017;-77
2023/12/23 11:13:55;;;;;;;2.58;1.35;;;;;;;3.78;83.61;92968.50;5083666;28;20215;-77
2023/12/23 11:16:20;;;;;;;3.38;1.65;;;;;;;3.91;83.86;92961.69;5083599;28;20021;-77
2023/12/23 11:18:45;;;;;;;4.35;1.77;;;;;;;4.03;82.17;92950.66;5083081;28;20048;-77
2023/12/23 11:21:17;;;;;;;2.38;1.30;;;;;;;4.14;81.44;92967.84;5083365;28;20035;-77
2023/12/23 11:23:43;;;;;;;2.53;1.33;;;;;;;4.22;80.55;92943.41;5083509;28;20020;-77
2023/12/23 11:26:41;;;;;;;2.70;1.17;;;;;;;4.32;78.10;92952.19;5083183;28;20023;-78
2023/12/23 11:29:08;;;;;;;2.85;1.42;;;;;;;4.44;78.82;92960.38;5083028;28;20027;-77
2023/12/23 11:31:34;;;;;;;5.05;2.05;;;;;;;4.53;79.12;92948.03;5083038;28;20036;-78
2023/12/23 11:33:59;;;;;;;4.28;1.98;;;;;;;4.53;79.46;92945.41;5083446;28;20027;-78
2023/12/23 11:36:25;;;;;;;2.95;1.25;;;;;;;4.51;78.53;92944.13;5083502;28;20066;-77